Time;durP1;ratioP1;P1;durP2;ratioP2;P2;SDS_P1;SDS_P2;PMS_P1;PMS_P2;Temp;Humidity;BMP_temperature;BMP_pressure;BME280_temperature;BME280_humidity;BME280_pressure;Samples;Min_cycle;Max_cycle;Signal;HPM_P1;HPM_P2
2022/08/21 00:01:57;;;;;;;7.43;6.90;;;;;;;;;;5117312;28;20206;-65
2022/08/21 00:04:25;;;;;;;7.50;6.68;;;;;;;;;;5117273;28;20263;-65
2022/08/21 00:06:53;;;;;;;7.57;6.88;;;;;;;;;;5117093;28;20603;-65
2022/08/21 00:09:20;;;;;;;7.30;6.80;;;;;;;;;;5117294;28;20233;-65
2022/08/21 00:11:48;;;;;;;6.70;6.20;;;;;;;;;;5117163;28;20264;-65
2022/08/21 00:14:17;;;;;;;6.68;6.18;;;;;;;;;;5100446;28;20302;-65
2022/08/21 00:16:44;;;;;;;6.82;6.32;;;;;;;;;;5096730;28;20204;-66
2022/08/21 00:19:12;;;;;;;6.63;6.13;;;;;;;;;;5097163;28;20208;-65
2022/08/21 00:21:39;;;;;;;6.88;6.28;;;;;;;;;;5097079;28;20239;-65
2022/08/21 00:24:07;;;;;;;7.15;6.57;;;;;;;;;;5096766;28;20214;-65
2022/08/21 00:26:34;;;;;;;7.22;6.63;;;;;;;;;;5096936;28;20203;-65
2022/08/21 00:29:02;;;;;;;6.82;6.03;;;;;;;;;;5100807;28;20230;-66
2022/08/21 00:31:30;;;;;;;6.18;5.78;;;;;;;;;;5117128;28;20644;-66
2022/08/21 00:33:58;;;;;;;6.72;6.20;;;;;;;;;;5116966;28;20583;-65
2022/08/21 00:36:25;;;;;;;6.47;5.95;;;;;;;;;;5120694;28;20260;-65
2022/08/21 00:38:52;;;;;;;6.82;6.25;;;;;;;;;;5121371;28;20521;-66
2022/08/21 00:41:20;;;;;;;6.80;6.30;;;;;;;;;;5120807;28;20651;-65
2022/08/21 00:43:47;;;;;;;6.20;5.68;;;;;;;;;;5120956;28;20203;-66
2022/08/21 00:46:15;;;;;;;6.45;5.85;;;;;;;;;;5121256;28;20205;-65
2022/08/21 00:48:43;;;;;;;6.32;5.82;;;;;;;;;;5120630;28;20215;-65
2022/08/21 00:51:13;;;;;;;6.47;5.97;;;;;;;;;;5121198;28;20597;-65
2022/08/21 00:53:42;;;;;;;6.38;5.88;;;;;;;;;;5120463;28;20578;-65
2022/08/21 00:56:10;;;;;;;6.05;5.65;;;;;;;;;;5120930;28;20563;-66
2022/08/21 00:58:39;;;;;;;6.18;5.68;;;;;;;;;;5120944;28;20301;-65
2022/08/21 01:01:08;;;;;;;6.05;5.60;;;;;;;;;;5120274;28;20640;-65
2022/08/21 01:03:36;;;;;;;6.43;5.93;;;;;;;;;;5119945;28;20203;-65
2022/08/21 01:06:06;;;;;;;6.38;5.97;;;;;;;;;;5120404;28;20218;-66
2022/08/21 01:08:34;;;;;;;6.28;5.85;;;;;;;;;;5120044;28;20244;-65
2022/08/21 01:11:02;;;;;;;6.05;5.65;;;;;;;;;;5120435;28;20215;-65
2022/08/21 01:13:31;;;;;;;6.10;5.60;;;;;;;;;;5120352;28;20211;-66
2022/08/21 01:16:00;;;;;;;6.32;5.72;;;;;;;;;;5120416;28;20202;-65
2022/08/21 01:18:28;;;;;;;5.90;5.50;;;;;;;;;;5120630;28;20295;-65
2022/08/21 01:21:07;;;;;;;6.57;5.93;;;;;;;;;;5120416;28;20206;-65
2022/08/21 01:23:34;;;;;;;6.25;5.85;;;;;;;;;;5120376;28;20632;-65
2022/08/21 01:26:02;;;;;;;6.13;5.72;;;;;;;;;;5120075;28;20211;-65
2022/08/21 01:28:31;;;;;;;5.88;5.47;;;;;;;;;;5119927;28;20263;-66
2022/08/21 01:30:58;;;;;;;5.60;5.20;;;;;;;;;;5120375;28;20227;-65
2022/08/21 01:33:26;;;;;;;7.03;5.45;;;;;;;;;;5120253;28;20225;-65
2022/08/21 01:35:53;;;;;;;6.00;5.60;;;;;;;;;;5110750;28;20206;-65
2022/08/21 01:38:22;;;;;;;5.90;5.50;;;;;;;;;;5119834;28;20247;-65
2022/08/21 01:40:50;;;;;;;6.22;5.38;;;;;;;;;;5120344;28;20517;-66
2022/08/21 01:43:17;;;;;;;5.85;5.35;;;;;;;;;;5120000;28;20256;-66
2022/08/21 01:45:44;;;;;;;6.22;5.82;;;;;;;;;;5119443;28;20685;-65
2022/08/21 01:48:12;;;;;;;5.65;5.15;;;;;;;;;;5118871;28;20659;-66
2022/08/21 01:50:39;;;;;;;5.78;5.38;;;;;;;;;;5119646;28;20230;-65
2022/08/21 01:53:07;;;;;;;5.75;5.30;;;;;;;;;;5117460;28;20319;-66
2022/08/21 01:55:36;;;;;;;5.80;5.40;;;;;;;;;;5120307;28;20387;-65
2022/08/21 01:58:03;;;;;;;5.65;5.25;;;;;;;;;;5119933;28;20203;-65
2022/08/21 02:00:31;;;;;;;5.50;5.10;;;;;;;;;;5119507;28;20263;-66
2022/08/21 02:02:58;;;;;;;5.32;4.93;;;;;;;;;;5119399;28;20203;-66
2022/08/21 02:05:26;;;;;;;6.18;5.78;;;;;;;;;;5113169;28;20275;-66
2022/08/21 02:07:54;;;;;;;5.70;5.30;;;;;;;;;;5099357;28;20288;-65
2022/08/21 02:10:23;;;;;;;6.03;5.53;;;;;;;;;;5098929;28;20288;-65
2022/08/21 02:12:51;;;;;;;5.93;5.53;;;;;;;;;;5098929;28;20203;-65
2022/08/21 02:15:19;;;;;;;5.68;5.28;;;;;;;;;;5098798;28;20204;-66
2022/08/21 02:17:48;;;;;;;5.80;5.30;;;;;;;;;;5098734;28;20298;-65
2022/08/21 02:20:17;;;;;;;6.07;5.68;;;;;;;;;;5101609;28;20199;-65
2022/08/21 02:22:45;;;;;;;5.75;5.35;;;;;;;;;;5098684;28;20199;-66
2022/08/21 02:25:13;;;;;;;5.50;5.10;;;;;;;;;;5098629;28;20204;-65
2022/08/21 02:27:41;;;;;;;5.80;5.40;;;;;;;;;;5098872;28;20759;-66
2022/08/21 02:30:12;;;;;;;5.80;5.40;;;;;;;;;;5112434;28;20242;-65
2022/08/21 02:32:39;;;;;;;5.68;5.28;;;;;;;;;;5118626;28;20260;-65
2022/08/21 02:35:08;;;;;;;5.85;5.45;;;;;;;;;;5119226;28;20535;-65
2022/08/21 02:37:36;;;;;;;5.57;5.10;;;;;;;;;;5119214;28;20242;-65
2022/08/21 02:40:04;;;;;;;5.57;5.18;;;;;;;;;;5119088;28;20226;-65
2022/08/21 02:42:31;;;;;;;5.38;4.97;;;;;;;;;;5119109;28;20211;-66
2022/08/21 02:44:58;;;;;;;6.15;5.70;;;;;;;;;;5119120;28;20489;-65
2022/08/21 02:47:27;;;;;;;5.60;5.20;;;;;;;;;;5118904;28;20203;-66
2022/08/21 02:49:55;;;;;;;5.60;5.20;;;;;;;;;;5118304;28;20202;-65
2022/08/21 02:52:23;;;;;;;5.43;5.03;;;;;;;;;;5118823;28;20211;-65
2022/08/21 02:54:50;;;;;;;5.93;5.53;;;;;;;;;;5118903;28;20242;-65
2022/08/21 02:57:17;;;;;;;5.63;5.13;;;;;;;;;;5118201;28;20195;-65
2022/08/21 02:59:44;;;;;;;6.05;5.60;;;;;;;;;;5118651;28;20463;-65
2022/08/21 03:02:12;;;;;;;5.65;5.25;;;;;;;;;;5118216;28;20583;-65
2022/08/21 03:04:41;;;;;;;5.60;5.10;;;;;;;;;;5118225;28;20268;-65
2022/08/21 03:07:08;;;;;;;5.28;4.88;;;;;;;;;;5118864;28;20583;-65
2022/08/21 03:09:36;;;;;;;6.18;5.68;;;;;;;;;;5118682;28;20591;-65
2022/08/21 03:12:03;;;;;;;5.32;4.93;;;;;;;;;;5118042;28;20227;-65
2022/08/21 03:14:30;;;;;;;5.63;5.22;;;;;;;;;;5118429;28;20219;-65
2022/08/21 03:16:58;;;;;;;5.72;5.32;;;;;;;;;;5118430;28;20274;-65
2022/08/21 03:19:25;;;;;;;5.28;4.88;;;;;;;;;;5118430;28;20203;-66
2022/08/21 03:21:54;;;;;;;5.97;5.47;;;;;;;;;;5118235;28;20598;-65
2022/08/21 03:24:21;;;;;;;5.82;5.43;;;;;;;;;;5118187;28;20203;-65
2022/08/21 03:26:49;;;;;;;5.68;5.28;;;;;;;;;;5117655;28;20211;-65
2022/08/21 03:29:16;;;;;;;5.78;5.30;;;;;;;;;;5117285;28;20303;-65
2022/08/21 03:31:43;;;;;;;5.57;5.18;;;;;;;;;;5117550;28;20226;-65
2022/08/21 03:34:10;;;;;;;6.20;5.70;;;;;;;;;;5117883;28;20263;-65
2022/08/21 03:36:39;;;;;;;5.85;5.45;;;;;;;;;;5117920;28;20206;-65
2022/08/21 03:39:08;;;;;;;6.00;5.60;;;;;;;;;;5117697;28;20203;-65
2022/08/21 03:41:35;;;;;;;5.60;5.20;;;;;;;;;;5115564;28;20260;-65
2022/08/21 03:44:04;;;;;;;5.80;5.40;;;;;;;;;;5097094;28;20265;-66
2022/08/21 03:46:31;;;;;;;5.75;5.35;;;;;;;;;;5097195;28;20210;-65
2022/08/21 03:48:58;;;;;;;6.18;5.78;;;;;;;;;;5097086;28;20203;-65
2022/08/21 03:51:26;;;;;;;6.57;6.00;;;;;;;;;;5097318;28;20239;-66
2022/08/21 03:53:54;;;;;;;6.38;5.88;;;;;;;;;;5097120;28;20211;-66
2022/08/21 03:56:23;;;;;;;5.82;5.43;;;;;;;;;;5096970;28;20257;-65
2022/08/21 03:58:50;;;;;;;6.30;5.80;;;;;;;;;;5097251;28;20203;-65
2022/08/21 04:01:18;;;;;;;6.60;6.10;;;;;;;;;;5097408;28;20270;-65
2022/08/21 04:03:45;;;;;;;6.90;6.40;;;;;;;;;;5096827;28;20195;-65
2022/08/21 04:06:12;;;;;;;7.10;6.50;;;;;;;;;;5097164;28;20298;-66
2022/08/21 04:08:42;;;;;;;7.47;6.88;;;;;;;;;;5097380;28;20203;-65
2022/08/21 04:11:11;;;;;;;6.90;6.40;;;;;;;;;;5120095;28;20235;-65
2022/08/21 04:13:40;;;;;;;7.28;6.68;;;;;;;;;;5121221;28;20203;-66
2022/08/21 04:16:08;;;;;;;6.88;6.38;;;;;;;;;;5122048;28;20211;-65
2022/08/21 04:18:35;;;;;;;6.72;6.22;;;;;;;;;;5121698;28;20546;-65
2022/08/21 04:21:03;;;;;;;7.40;6.80;;;;;;;;;;5121655;28;20443;-65
2022/08/21 04:23:31;;;;;;;7.88;7.28;;;;;;;;;;5121686;28;20211;-65
2022/08/21 04:25:58;;;;;;;7.70;7.00;;;;;;;;;;5121150;28;20267;-65
2022/08/21 04:28:27;;;;;;;6.90;6.40;;;;;;;;;;5121416;28;20276;-65
2022/08/21 04:30:56;;;;;;;6.95;6.45;;;;;;;;;;5120962;27;20586;-65
2022/08/21 04:33:24;;;;;;;7.00;6.40;;;;;;;;;;5121539;28;20202;-67
2022/08/21 04:35:51;;;;;;;6.90;6.40;;;;;;;;;;5121278;28;20271;-65
2022/08/21 04:38:20;;;;;;;7.70;7.10;;;;;;;;;;5100417;28;20265;-66
2022/08/21 04:40:48;;;;;;;6.70;6.10;;;;;;;;;;5100540;28;20200;-65
2022/08/21 04:43:15;;;;;;;7.18;6.50;;;;;;;;;;5101000;28;20568;-66
2022/08/21 04:45:44;;;;;;;7.30;6.70;;;;;;;;;;5100831;28;20214;-65
2022/08/21 04:48:14;;;;;;;7.50;6.90;;;;;;;;;;5100895;28;20204;-65
2022/08/21 04:50:44;;;;;;;7.65;7.05;;;;;;;;;;5100697;28;20615;-65
2022/08/21 04:53:13;;;;;;;7.50;6.90;;;;;;;;;;5100694;28;20204;-66
2022/08/21 04:55:41;;;;;;;7.13;6.60;;;;;;;;;;5099969;28;20211;-65
2022/08/21 04:58:09;;;;;;;6.90;6.30;;;;;;;;;;5100288;28;20211;-65
2022/08/21 05:00:37;;;;;;;7.45;6.75;;;;;;;;;;5100254;28;20276;-65
2022/08/21 05:03:06;;;;;;;7.45;6.75;;;;;;;;;;5100240;28;20204;-65
2022/08/21 05:05:35;;;;;;;7.22;6.60;;;;;;;;;;5118375;28;20199;-65
2022/08/21 05:08:03;;;;;;;6.95;6.45;;;;;;;;;;5120533;28;20202;-65
2022/08/21 05:10:32;;;;;;;6.95;6.45;;;;;;;;;;5120765;28;20518;-65
2022/08/21 05:13:00;;;;;;;7.00;6.50;;;;;;;;;;5120988;28;20202;-65
2022/08/21 05:15:27;;;;;;;7.65;6.95;;;;;;;;;;5120512;28;20202;-66
2022/08/21 05:17:55;;;;;;;7.25;6.65;;;;;;;;;;5120224;28;20218;-66
2022/08/21 05:20:23;;;;;;;6.97;6.38;;;;;;;;;;5120353;28;20207;-66
2022/08/21 05:22:51;;;;;;;7.32;6.72;;;;;;;;;;5119830;28;20536;-65
2022/08/21 05:25:19;;;;;;;7.88;7.28;;;;;;;;;;5120328;28;20222;-65
2022/08/21 05:27:46;;;;;;;8.07;7.38;;;;;;;;;;5120369;28;20202;-65
2022/08/21 05:30:14;;;;;;;7.70;7.00;;;;;;;;;;5120144;28;20295;-65
2022/08/21 05:32:41;;;;;;;7.25;6.65;;;;;;;;;;5105162;28;20320;-65
2022/08/21 05:35:09;;;;;;;7.93;7.22;;;;;;;;;;5102239;28;20261;-65
2022/08/21 05:37:37;;;;;;;7.45;6.90;;;;;;;;;;5120121;28;20575;-65
2022/08/21 05:40:07;;;;;;;7.55;6.95;;;;;;;;;;5119784;28;20640;-65
2022/08/21 05:42:34;;;;;;;7.78;6.97;;;;;;;;;;5119911;28;20191;-65
2022/08/21 05:45:02;;;;;;;8.18;7.47;;;;;;;;;;5119490;28;20206;-65
2022/08/21 05:47:29;;;;;;;7.28;6.68;;;;;;;;;;5119597;28;20286;-65
2022/08/21 05:49:56;;;;;;;7.70;7.05;;;;;;;;;;5119583;28;20669;-65
2022/08/21 05:52:24;;;;;;;7.93;7.30;;;;;;;;;;5119924;28;20607;-65
2022/08/21 05:54:53;;;;;;;7.40;6.80;;;;;;;;;;5119779;28;20221;-65
2022/08/21 05:57:22;;;;;;;8.10;7.40;;;;;;;;;;5119925;28;20203;-65
2022/08/21 05:59:50;;;;;;;7.72;7.13;;;;;;;;;;5114569;28;20662;-65
2022/08/21 06:02:18;;;;;;;8.27;7.60;;;;;;;;;;5100578;28;20253;-65
2022/08/21 06:04:46;;;;;;;7.68;7.07;;;;;;;;;;5099440;28;20211;-65
2022/08/21 06:07:13;;;;;;;8.13;7.53;;;;;;;;;;5099064;28;20214;-65
2022/08/21 06:09:40;;;;;;;7.60;7.00;;;;;;;;;;5098966;28;20212;-65
2022/08/21 06:12:10;;;;;;;7.70;7.10;;;;;;;;;;5099189;28;20619;-65
2022/08/21 06:14:39;;;;;;;8.27;7.57;;;;;;;;;;5098331;28;20269;-65
2022/08/21 06:17:07;;;;;;;8.70;8.00;;;;;;;;;;5098051;28;20220;-65
2022/08/21 06:19:35;;;;;;;8.88;8.18;;;;;;;;;;5098719;28;20203;-65
2022/08/21 06:22:02;;;;;;;7.68;7.07;;;;;;;;;;5098104;28;20199;-65
2022/08/21 06:24:29;;;;;;;7.55;6.95;;;;;;;;;;5098318;28;20212;-65
2022/08/21 06:26:57;;;;;;;8.18;7.57;;;;;;;;;;5110495;28;20557;-65
2022/08/21 06:29:25;;;;;;;8.20;7.57;;;;;;;;;;5118826;28;20239;-65
2022/08/21 06:31:53;;;;;;;8.10;7.50;;;;;;;;;;5119046;28;20622;-65
2022/08/21 06:34:20;;;;;;;8.60;7.90;;;;;;;;;;5118460;28;20575;-65
2022/08/21 06:36:48;;;;;;;8.20;7.60;;;;;;;;;;5118781;28;20203;-65
2022/08/21 06:39:15;;;;;;;8.48;7.78;;;;;;;;;;5117989;28;20660;-65
2022/08/21 06:41:43;;;;;;;8.32;7.70;;;;;;;;;;5118674;28;20199;-65
2022/08/21 06:44:10;;;;;;;8.10;7.40;;;;;;;;;;5118323;28;20210;-65
2022/08/21 06:46:37;;;;;;;7.90;7.30;;;;;;;;;;5118276;28;20267;-65
2022/08/21 06:49:06;;;;;;;7.45;6.85;;;;;;;;;;5117904;28;20210;-65
2022/08/21 06:51:34;;;;;;;8.27;7.53;;;;;;;;;;5118183;28;20230;-67
2022/08/21 06:54:02;;;;;;;8.65;7.95;;;;;;;;;;5109805;28;20591;-65
2022/08/21 06:56:29;;;;;;;9.48;8.57;;;;;;;;;;5097584;28;20203;-65
2022/08/21 06:58:58;;;;;;;8.60;7.90;;;;;;;;;;5097470;28;20284;-65
2022/08/21 07:01:27;;;;;;;8.93;8.23;;;;;;;;;;5097474;28;20192;-65
2022/08/21 07:03:54;;;;;;;9.52;8.73;;;;;;;;;;5097746;28;20207;-65
2022/08/21 07:06:23;;;;;;;10.07;9.27;;;;;;;;;;5097496;28;20211;-66
2022/08/21 07:08:50;;;;;;;9.80;9.00;;;;;;;;;;5097659;28;20265;-67
2022/08/21 07:11:19;;;;;;;10.10;9.30;;;;;;;;;;5097283;28;20200;-65
2022/08/21 07:13:47;;;;;;;10.98;9.98;;;;;;;;;;5097245;28;20203;-65
2022/08/21 07:16:14;;;;;;;10.52;9.63;;;;;;;;;;5097085;28;20269;-65
2022/08/21 07:18:41;;;;;;;10.35;9.48;;;;;;;;;;5097086;28;20662;-65
2022/08/21 07:21:10;;;;;;;10.15;9.35;;;;;;;;;;5100655;28;20248;-65
2022/08/21 07:23:41;;;;;;;10.73;9.82;;;;;;;;;;5107310;28;20207;-65
2022/08/21 07:26:08;;;;;;;10.82;9.93;;;;;;;;;;5117812;28;20203;-65
2022/08/21 07:28:36;;;;;;;10.20;9.40;;;;;;;;;;5114632;28;20196;-65
2022/08/21 07:31:04;;;;;;;10.20;9.30;;;;;;;;;;5116564;28;20203;-65
2022/08/21 07:33:34;;;;;;;10.27;9.38;;;;;;;;;;5116626;28;20314;-65
2022/08/21 07:36:01;;;;;;;10.35;9.55;;;;;;;;;;5116593;28;20194;-65
2022/08/21 07:38:29;;;;;;;10.32;9.52;;;;;;;;;;5116799;28;20202;-66
2022/08/21 07:40:59;;;;;;;10.40;9.60;;;;;;;;;;5117182;28;20203;-65
2022/08/21 07:43:26;;;;;;;10.38;9.55;;;;;;;;;;5116140;28;20285;-65
2022/08/21 07:45:54;;;;;;;10.63;9.77;;;;;;;;;;5116020;28;20271;-65
2022/08/21 07:48:22;;;;;;;9.98;9.18;;;;;;;;;;5116752;28;20750;-65
2022/08/21 07:50:49;;;;;;;10.02;9.20;;;;;;;;;;5122979;27;20206;-65
2022/08/21 07:53:17;;;;;;;9.65;8.85;;;;;;;;;;5136781;27;20237;-65
2022/08/21 07:55:44;;;;;;;10.00;9.20;;;;;;;;;;5137681;27;20274;-65
2022/08/21 07:58:13;;;;;;;9.82;9.00;;;;;;;;;;5136385;27;20209;-65
2022/08/21 08:00:41;;;;;;;11.23;10.32;;;;;;;;;;5136795;27;20210;-65
2022/08/21 08:03:08;;;;;;;10.80;9.85;;;;;;;;;;5136317;28;20251;-65
2022/08/21 08:05:37;;;;;;;10.75;9.85;;;;;;;;;;5136949;28;20210;-65
2022/08/21 08:08:04;;;;;;;10.70;9.80;;;;;;;;;;5136585;28;20217;-65
2022/08/21 08:10:31;;;;;;;11.90;10.80;;;;;;;;;;5136919;28;20207;-65
2022/08/21 08:12:58;;;;;;;10.98;10.07;;;;;;;;;;5136286;28;20299;-65
2022/08/21 08:15:28;;;;;;;11.82;10.73;;;;;;;;;;5136910;28;20310;-65
2022/08/21 08:17:56;;;;;;;12.20;11.20;;;;;;;;;;5116987;28;20210;-65
2022/08/21 08:20:24;;;;;;;13.20;12.10;;;;;;;;;;5116557;28;20203;-65
2022/08/21 08:22:52;;;;;;;12.90;11.80;;;;;;;;;;5116388;28;20230;-65
2022/08/21 08:25:20;;;;;;;13.90;12.60;;;;;;;;;;5115533;28;20685;-66
2022/08/21 08:27:47;;;;;;;14.85;13.55;;;;;;;;;;5116056;28;20203;-65
2022/08/21 08:30:16;;;;;;;12.98;11.85;;;;;;;;;;5115852;28;20797;-65
2022/08/21 08:32:44;;;;;;;13.80;12.60;;;;;;;;;;5115530;28;20230;-65
2022/08/21 08:35:12;;;;;;;14.10;12.90;;;;;;;;;;5115941;28;20203;-65
2022/08/21 08:37:39;;;;;;;13.57;12.38;;;;;;;;;;5116111;28;20293;-65
2022/08/21 08:40:08;;;;;;;13.40;12.30;;;;;;;;;;5116247;28;20203;-65
2022/08/21 08:42:37;;;;;;;13.43;12.25;;;;;;;;;;5116706;28;20520;-65
2022/08/21 08:45:06;;;;;;;12.57;11.57;;;;;;;;;;5134341;28;20199;-65
2022/08/21 08:47:35;;;;;;;12.93;11.88;;;;;;;;;;5136334;28;20267;-65
2022/08/21 08:50:05;;;;;;;13.05;11.95;;;;;;;;;;5136421;28;20202;-65
2022/08/21 08:52:34;;;;;;;12.65;11.65;;;;;;;;;;5136682;28;20290;-66
2022/08/21 08:55:04;;;;;;;12.80;11.70;;;;;;;;;;5135984;27;20203;-65
2022/08/21 08:57:31;;;;;;;12.52;11.40;;;;;;;;;;5140047;27;20594;-65
2022/08/21 09:00:00;;;;;;;12.48;11.48;;;;;;;;;;5139785;27;20267;-65
2022/08/21 09:02:28;;;;;;;11.40;10.43;;;;;;;;;;5139575;27;20216;-65
2022/08/21 09:04:56;;;;;;;11.25;10.35;;;;;;;;;;5139808;27;20263;-65
2022/08/21 09:07:32;;;;;;;11.57;10.57;;;;;;;;;;5140193;27;20270;-65
2022/08/21 09:10:08;;;;;;;10.18;9.38;;;;;;;;;;5140065;27;20209;-65
2022/08/21 09:12:41;;;;;;;10.77;9.88;;;;;;;;;;5119464;27;20222;-65
2022/08/21 09:15:14;;;;;;;9.95;9.15;;;;;;;;;;5118967;28;20283;-65
2022/08/21 09:17:49;;;;;;;10.00;9.25;;;;;;;;;;5119198;28;20256;-65
2022/08/21 09:20:20;;;;;;;9.45;8.65;;;;;;;;;;5119051;28;20295;-65
2022/08/21 09:22:56;;;;;;;9.65;8.85;;;;;;;;;;5119021;28;20206;-65
2022/08/21 09:25:25;;;;;;;9.80;9.00;;;;;;;;;;5132817;27;20205;-66
2022/08/21 09:27:52;;;;;;;10.27;9.48;;;;;;;;;;5139957;27;20202;-65
2022/08/21 09:30:22;;;;;;;9.77;8.98;;;;;;;;;;5124771;27;20230;-65
2022/08/21 09:32:50;;;;;;;9.07;8.38;;;;;;;;;;5118934;28;20611;-65
2022/08/21 09:35:19;;;;;;;8.77;7.97;;;;;;;;;;5119313;28;20214;-66
2022/08/21 09:37:49;;;;;;;9.07;8.38;;;;;;;;;;5119261;28;20203;-65
2022/08/21 09:40:25;;;;;;;8.95;8.15;;;;;;;;;;5118967;28;20215;-65
2022/08/21 09:42:56;;;;;;;8.82;8.05;;;;;;;;;;5100000;28;20195;-65
2022/08/21 09:45:24;;;;;;;9.10;8.20;;;;;;;;;;5098574;28;20584;-65
2022/08/21 09:47:51;;;;;;;8.38;7.68;;;;;;;;;;5098075;28;20203;-65
2022/08/21 09:50:21;;;;;;;8.15;7.45;;;;;;;;;;5098132;28;20461;-65
2022/08/21 09:52:50;;;;;;;8.05;7.35;;;;;;;;;;5097929;28;20242;-65
2022/08/21 09:58:12;;;;;;;8.18;7.25;;;;;;;;;;5097898;28;20202;-65
2022/08/21 10:00:39;;;;;;;8.18;7.35;;;;;;;;;;5096844;28;20325;-65
2022/08/21 10:03:12;;;;;;;7.32;6.78;;;;;;;;;;5097295;28;20256;-65
2022/08/21 10:05:39;;;;;;;7.28;6.78;;;;;;;;;;5097182;28;20583;-65
2022/08/21 10:08:17;;;;;;;7.43;6.90;;;;;;;;;;5097831;28;20572;-65
2022/08/21 10:10:46;;;;;;;7.80;7.10;;;;;;;;;;5115840;28;20207;-65
2022/08/21 10:13:15;;;;;;;7.53;6.82;;;;;;;;;;5117461;28;20378;-65
2022/08/21 10:15:48;;;;;;;7.40;6.70;;;;;;;;;;5117775;28;20203;-65
2022/08/21 10:18:23;;;;;;;7.22;6.63;;;;;;;;;;5118421;28;20211;-65
2022/08/21 10:20:54;;;;;;;7.38;6.68;;;;;;;;;;5116971;28;20237;-65
2022/08/21 10:23:35;;;;;;;6.20;5.60;;;;;;;;;;5116048;28;20195;-65
2022/08/21 10:26:13;;;;;;;6.85;6.32;;;;;;;;;;5115816;28;20203;-65
2022/08/21 10:28:44;;;;;;;6.20;5.78;;;;;;;;;;5117286;28;20256;-65
2022/08/21 10:31:16;;;;;;;6.50;6.00;;;;;;;;;;5117247;28;20210;-65
2022/08/21 10:33:47;;;;;;;6.32;5.82;;;;;;;;;;5117415;28;20227;-65
2022/08/21 10:36:18;;;;;;;6.57;6.07;;;;;;;;;;5110399;28;20268;-65
2022/08/21 10:38:53;;;;;;;6.03;5.55;;;;;;;;;;5112586;28;20209;-65
2022/08/21 10:41:25;;;;;;;6.15;5.65;;;;;;;;;;5117106;28;20203;-65
2022/08/21 10:43:57;;;;;;;5.53;5.03;;;;;;;;;;5116984;28;20199;-65
2022/08/21 10:46:28;;;;;;;5.57;5.07;;;;;;;;;;5116748;28;20203;-65
2022/08/21 10:48:59;;;;;;;5.50;5.10;;;;;;;;;;5116754;28;20264;-65
2022/08/21 10:51:31;;;;;;;6.20;5.60;;;;;;;;;;5116556;28;20210;-65
2022/08/21 10:54:02;;;;;;;5.10;4.70;;;;;;;;;;5116441;28;20315;-65
2022/08/21 10:56:32;;;;;;;5.22;4.72;;;;;;;;;;5116138;28;20210;-65
2022/08/21 10:59:09;;;;;;;5.30;4.82;;;;;;;;;;5116004;28;20207;-65
2022/08/21 11:01:41;;;;;;;5.10;4.70;;;;;;;;;;5116659;28;20215;-65
2022/08/21 11:04:14;;;;;;;4.72;4.32;;;;;;;;;;5107345;28;20199;-65
2022/08/21 11:06:46;;;;;;;4.63;4.30;;;;;;;;;;5095774;28;20282;-65
2022/08/21 11:09:14;;;;;;;4.53;4.22;;;;;;;;;;5095699;28;20206;-65
2022/08/21 11:11:48;;;;;;;4.72;4.38;;;;;;;;;;5095686;28;20694;-65
2022/08/21 11:14:19;;;;;;;4.60;4.20;;;;;;;;;;5096271;28;20219;-65
2022/08/21 11:16:49;;;;;;;4.20;3.90;;;;;;;;;;5095189;28;20264;-66
2022/08/21 11:19:19;;;;;;;4.70;4.40;;;;;;;;;;5095690;28;20222;-65
2022/08/21 11:21:49;;;;;;;4.68;4.38;;;;;;;;;;5095700;28;20208;-65
2022/08/21 11:24:21;;;;;;;4.78;4.38;;;;;;;;;;5095093;28;20299;-65
2022/08/21 11:26:53;;;;;;;4.47;4.07;;;;;;;;;;5094774;28;20672;-65
2022/08/21 11:29:25;;;;;;;4.80;4.40;;;;;;;;;;5101812;28;20284;-65
2022/08/21 11:31:58;;;;;;;4.57;3.97;;;;;;;;;;5115713;28;20198;-65
2022/08/21 11:34:31;;;;;;;4.72;4.32;;;;;;;;;;5115162;28;20287;-65
2022/08/21 11:37:03;;;;;;;4.40;4.10;;;;;;;;;;5115073;28;20264;-65
2022/08/21 11:39:35;;;;;;;4.72;3.95;;;;;;;;;;5114762;28;20571;-65
2022/08/21 11:42:10;;;;;;;4.50;3.67;;;;;;;;;;5115134;28;20203;-65
2022/08/21 11:44:44;;;;;;;4.50;4.10;;;;;;;;;;5115596;28;20527;-65
2022/08/21 11:47:15;;;;;;;4.40;4.10;;;;;;;;;;5116099;28;20684;-65
2022/08/21 11:49:48;;;;;;;4.53;4.03;;;;;;;;;;5114298;28;20198;-65
2022/08/21 11:52:21;;;;;;;4.32;3.92;;;;;;;;;;5115480;28;20575;-66
2022/08/21 11:54:51;;;;;;;4.30;4.00;;;;;;;;;;5116503;28;20234;-65
2022/08/21 11:57:22;;;;;;;4.18;3.88;;;;;;;;;;5115171;28;20210;-65
2022/08/21 11:59:52;;;;;;;4.50;4.07;;;;;;;;;;5107736;28;20211;-65
2022/08/21 12:02:21;;;;;;;4.57;3.47;;;;;;;;;;5094080;28;20292;-65
2022/08/21 12:04:50;;;;;;;3.90;3.60;;;;;;;;;;5095325;28;20199;-65
2022/08/21 12:07:19;;;;;;;4.25;3.72;;;;;;;;;;5094404;28;20210;-65
2022/08/21 12:09:54;;;;;;;3.88;3.58;;;;;;;;;;5095241;28;20265;-65
2022/08/21 12:12:28;;;;;;;3.47;3.17;;;;;;;;;;5095649;28;20301;-65
2022/08/21 12:15:09;;;;;;;4.70;3.80;;;;;;;;;;5094974;28;20228;-65
2022/08/21 12:17:37;;;;;;;3.47;3.28;;;;;;;;;;5094846;28;20461;-65
2022/08/21 12:20:18;;;;;;;3.33;3.13;;;;;;;;;;5094069;28;20583;-65
2022/08/21 12:22:51;;;;;;;3.25;3.05;;;;;;;;;;5096023;28;20214;-65
2022/08/21 12:25:20;;;;;;;4.28;3.42;;;;;;;;;;5114793;28;20207;-65
2022/08/21 12:27:50;;;;;;;3.97;3.50;;;;;;;;;;5114868;28;20191;-65
2022/08/21 12:30:23;;;;;;;3.70;3.22;;;;;;;;;;5115050;28;20234;-65
2022/08/21 12:32:56;;;;;;;3.47;3.28;;;;;;;;;;5118169;28;20210;-65
2022/08/21 12:35:26;;;;;;;3.33;3.03;;;;;;;;;;5119456;28;20210;-65
2022/08/21 12:37:59;;;;;;;3.63;3.38;;;;;;;;;;5119388;28;20231;-65
2022/08/21 12:40:27;;;;;;;3.47;3.17;;;;;;;;;;5118126;28;20203;-65
2022/08/21 12:42:58;;;;;;;4.03;3.65;;;;;;;;;;5119185;28;20574;-65
2022/08/21 12:45:29;;;;;;;3.95;3.65;;;;;;;;;;5119398;28;20194;-65
2022/08/21 12:47:58;;;;;;;3.22;3.03;;;;;;;;;;5118969;28;20203;-65
2022/08/21 12:50:30;;;;;;;3.30;3.10;;;;;;;;;;5118593;28;20206;-65
2022/08/21 12:53:01;;;;;;;3.38;3.17;;;;;;;;;;5119024;28;20227;-65
2022/08/21 12:55:29;;;;;;;3.63;3.35;;;;;;;;;;5116608;28;20264;-65
2022/08/21 12:57:58;;;;;;;3.55;3.35;;;;;;;;;;5116620;28;20263;-65
2022/08/21 13:00:26;;;;;;;3.40;3.10;;;;;;;;;;5118310;28;20571;-65
2022/08/21 13:02:55;;;;;;;3.83;3.50;;;;;;;;;;5118277;28;20256;-65
2022/08/21 13:05:27;;;;;;;3.45;3.15;;;;;;;;;;5117754;27;20194;-65
2022/08/21 13:07:54;;;;;;;3.70;3.38;;;;;;;;;;5118082;28;20203;-65
2022/08/21 13:10:23;;;;;;;3.30;3.10;;;;;;;;;;5118151;28;20199;-65
2022/08/21 13:12:52;;;;;;;3.58;3.30;;;;;;;;;;5118346;28;20534;-65
2022/08/21 13:15:27;;;;;;;3.30;3.10;;;;;;;;;;5118781;28;20547;-66
2022/08/21 13:17:54;;;;;;;3.72;3.42;;;;;;;;;;5118665;28;20529;-65
2022/08/21 13:20:22;;;;;;;3.60;3.40;;;;;;;;;;5118834;28;20666;-65
2022/08/21 13:22:52;;;;;;;3.35;3.05;;;;;;;;;;5107558;28;20859;-65
2022/08/21 13:25:21;;;;;;;4.00;3.70;;;;;;;;;;5098246;28;20214;-67
2022/08/21 13:27:58;;;;;;;3.78;3.47;;;;;;;;;;5097702;28;20210;-66
2022/08/21 13:30:27;;;;;;;4.20;3.90;;;;;;;;;;5113519;28;20226;-66
2022/08/21 13:32:59;;;;;;;3.70;3.40;;;;;;;;;;5118348;28;20702;-66
2022/08/21 13:35:27;;;;;;;3.53;3.33;;;;;;;;;;5118455;28;20262;-66
2022/08/21 13:37:56;;;;;;;3.80;3.50;;;;;;;;;;5117376;28;20210;-66
2022/08/21 13:40:26;;;;;;;3.70;3.40;;;;;;;;;;5117563;28;20309;-66
2022/08/21 13:42:53;;;;;;;3.85;3.55;;;;;;;;;;5117138;28;20271;-66
2022/08/21 13:45:25;;;;;;;4.05;3.65;;;;;;;;;;5118321;28;20199;-66
2022/08/21 13:47:55;;;;;;;3.60;3.40;;;;;;;;;;5117515;28;20202;-66
2022/08/21 13:50:23;;;;;;;4.18;3.58;;;;;;;;;;5117399;27;20203;-66
2022/08/21 13:52:56;;;;;;;4.07;3.50;;;;;;;;;;5117703;28;20203;-66
2022/08/21 13:55:24;;;;;;;3.72;3.45;;;;;;;;;;5116718;28;20223;-66
2022/08/21 13:58:00;;;;;;;3.83;3.53;;;;;;;;;;5117161;28;20207;-66
2022/08/21 14:00:30;;;;;;;4.18;3.78;;;;;;;;;;5118727;28;20646;-66
2022/08/21 14:03:02;;;;;;;3.88;3.58;;;;;;;;;;5116214;28;20203;-66
2022/08/21 14:05:30;;;;;;;4.28;3.88;;;;;;;;;;5116402;28;20213;-66
2022/08/21 14:08:02;;;;;;;4.20;3.85;;;;;;;;;;5117151;28;20202;-67
2022/08/21 14:10:30;;;;;;;4.18;3.78;;;;;;;;;;5116665;28;20195;-67
2022/08/21 14:13:00;;;;;;;4.30;3.90;;;;;;;;;;5117630;28;20488;-66
2022/08/21 14:15:29;;;;;;;3.90;3.60;;;;;;;;;;5117431;28;20645;-66
2022/08/21 14:17:57;;;;;;;3.95;3.63;;;;;;;;;;5121667;27;20286;-66
2022/08/21 14:20:30;;;;;;;4.03;3.72;;;;;;;;;;5116934;28;20294;-66
2022/08/21 14:22:58;;;;;;;3.72;3.53;;;;;;;;;;5116373;28;20203;-67
2022/08/21 14:25:30;;;;;;;4.10;3.80;;;;;;;;;;5117476;28;20199;-66
2022/08/21 14:28:00;;;;;;;4.03;3.63;;;;;;;;;;5117265;28;20614;-67
2022/08/21 14:30:29;;;;;;;3.83;3.55;;;;;;;;;;5116612;28;20239;-66
2022/08/21 14:32:57;;;;;;;3.90;3.60;;;;;;;;;;5116172;28;20587;-67
2022/08/21 14:35:24;;;;;;;3.95;3.65;;;;;;;;;;5116059;28;20223;-66
2022/08/21 14:37:54;;;;;;;3.83;3.53;;;;;;;;;;5116769;28;20226;-66
2022/08/21 14:40:23;;;;;;;3.42;3.22;;;;;;;;;;5116572;28;20215;-66
2022/08/21 14:42:51;;;;;;;3.90;3.58;;;;;;;;;;5116438;28;20246;-67
2022/08/21 14:45:19;;;;;;;3.90;3.60;;;;;;;;;;5133969;27;20202;-66
2022/08/21 14:47:47;;;;;;;4.13;3.72;;;;;;;;;;5136266;27;20285;-66
2022/08/21 14:50:14;;;;;;;4.07;3.70;;;;;;;;;;5136720;27;20202;-66
2022/08/21 14:52:42;;;;;;;4.13;3.83;;;;;;;;;;5135983;27;20202;-66
2022/08/21 14:55:13;;;;;;;3.85;3.55;;;;;;;;;;5135592;27;20222;-66